Time;durP1;ratioP1;P1;durP2;ratioP2;P2;SDS_P1;SDS_P2;PMS_P1;PMS_P2;Temp;Humidity;BMP_temperature;BMP_pressure;BME280_temperature;BME280_humidity;BME280_pressure;Samples;Min_cycle;Max_cycle;Signal;HPM_P1;HPM_P2
2023/04/07 00:03:06;;;;;;;2.05;1.50;;;14.90;63.30;;;;;;10317208;28;20109;-55
2023/04/07 00:08:07;;;;;;;2.47;1.80;;;14.90;63.20;;;;;;10324808;28;20117;-56
2023/04/07 00:13:07;;;;;;;2.92;2.15;;;14.90;63.20;;;;;;10324721;28;20099;-56
2023/04/07 00:18:08;;;;;;;2.80;1.83;;;14.90;63.20;;;;;;10324966;28;20050;-56
2023/04/07 00:23:09;;;;;;;2.85;1.63;;;14.80;63.20;;;;;;10324522;28;20117;-55
2023/04/07 00:28:09;;;;;;;2.42;1.60;;;14.80;63.20;;;;;;10324433;28;20088;-55
2023/04/07 00:33:10;;;;;;;11.32;2.70;;;14.80;63.30;;;;;;10324051;28;20077;-54
2023/04/07 00:38:11;;;;;;;2.80;1.50;;;14.80;63.30;;;;;;10323683;28;20170;-55
2023/04/07 00:43:12;;;;;;;3.40;1.88;;;14.80;63.30;;;;;;10323999;28;20436;-56
2023/04/07 00:48:13;;;;;;;1.92;1.50;;;14.80;63.40;;;;;;10324073;28;20054;-56
2023/04/07 00:53:14;;;;;;;2.35;1.50;;;14.80;63.40;;;;;;10321953;28;20497;-54
2023/04/07 00:58:15;;;;;;;2.35;1.33;;;14.80;63.40;;;;;;10323822;28;20019;-54
2023/04/07 01:03:24;;;;;;;1.75;1.02;;;14.80;63.40;;;;;;10328087;28;20019;-55
2023/04/07 01:09:02;;;;;;;1.73;1.27;;;14.80;63.40;;;;;;10322898;28;20644;-55
2023/04/07 01:14:03;;;;;;;1.92;1.35;;;14.80;63.40;;;;;;10325694;28;20043;-56
2023/04/07 01:19:30;;;;;;;1.85;1.10;;;14.70;63.40;;;;;;10331923;28;20045;-56
2023/04/07 01:25:16;;;;;;;2.55;1.35;;;14.70;63.40;;;;;;10329907;28;20038;-56
2023/04/07 01:30:19;;;;;;;2.03;1.35;;;14.70;63.40;;;;;;10331039;28;20018;-55
2023/04/07 01:35:22;;;;;;;2.47;1.13;;;14.70;63.40;;;;;;10329743;28;20030;-55
2023/04/07 01:40:24;;;;;;;2.72;1.50;;;14.70;63.40;;;;;;10330373;28;20105;-55
2023/04/07 01:45:26;;;;;;;1.42;1.02;;;14.70;63.30;;;;;;10329518;28;20100;-56
2023/04/07 01:50:28;;;;;;;1.48;0.75;;;14.70;63.40;;;;;;10328762;28;20080;-56
2023/04/07 01:55:29;;;;;;;1.98;1.02;;;14.70;63.40;;;;;;10329017;28;20053;-55
2023/04/07 02:00:30;;;;;;;2.20;1.25;;;14.70;63.50;;;;;;10328187;28;20049;-55
2023/04/07 02:05:33;;;;;;;1.75;1.17;;;14.70;63.50;;;;;;10327796;28;20074;-54
2023/04/07 02:10:37;;;;;;;2.35;1.35;;;14.70;63.50;;;;;;10323625;28;20033;-55
2023/04/07 02:15:39;;;;;;;3.25;1.58;;;14.70;63.50;;;;;;10325715;28;20034;-55
2023/04/07 02:20:42;;;;;;;2.28;1.08;;;14.70;63.50;;;;;;10325271;28;20022;-55
2023/04/07 02:25:43;;;;;;;2.45;1.42;;;14.70;63.50;;;;;;10325690;28;20023;-56
2023/04/07 02:30:44;;;;;;;1.77;1.10;;;14.60;63.50;;;;;;10326244;28;20026;-55
2023/04/07 02:35:44;;;;;;;1.75;1.10;;;14.60;63.50;;;;;;10326375;28;20121;-53
2023/04/07 02:40:45;;;;;;;2.30;1.67;;;14.60;63.50;;;;;;10325841;28;20412;-55
2023/04/07 02:45:46;;;;;;;1.75;1.00;;;14.60;63.50;;;;;;10326341;28;20033;-55
2023/04/07 02:50:46;;;;;;;2.25;1.40;;;14.60;63.50;;;;;;10311408;28;20497;-56
2023/04/07 02:55:47;;;;;;;2.17;1.20;;;14.60;63.50;;;;;;10324499;28;20117;-55
2023/04/07 03:00:48;;;;;;;3.00;1.38;;;14.60;63.60;;;;;;10330418;28;20023;-55
2023/04/07 03:05:49;;;;;;;2.15;1.45;;;14.60;63.50;;;;;;10290424;28;1035967;-55
2023/04/07 03:10:50;;;;;;;1.75;1.20;;;14.60;63.50;;;;;;10327291;28;20121;-54
2023/04/07 03:15:50;;;;;;;2.22;1.48;;;14.60;63.40;;;;;;10327225;28;20038;-56
2023/04/07 03:20:51;;;;;;;2.63;1.50;;;14.70;63.30;;;;;;10326914;28;20114;-55
2023/04/07 03:25:52;;;;;;;2.70;1.55;;;14.80;62.80;;;;;;10326233;28;20038;-56
2023/04/07 03:30:53;;;;;;;1.90;1.60;;;15.00;62.50;;;;;;10325818;28;20166;-55
2023/04/07 03:35:53;;;;;;;1.45;1.05;;;15.20;62.00;;;;;;10326381;28;20057;-56
2023/04/07 03:40:54;;;;;;;1.48;1.23;;;15.40;61.70;;;;;;10325729;28;20110;-55
2023/04/07 03:45:55;;;;;;;4.30;3.08;;;15.60;60.90;;;;;;10326261;28;20049;-54
2023/04/07 03:50:55;;;;;;;2.20;1.40;;;16.00;59.60;;;;;;10324129;28;20026;-55
2023/04/07 03:55:56;;;;;;;2.42;1.17;;;16.50;58.40;;;;;;10325390;28;20066;-54
2023/04/07 04:00:57;;;;;;;2.55;1.40;;;16.70;58.30;;;;;;10328320;28;20034;-55
2023/04/07 04:05:58;;;;;;;1.48;0.90;;;16.80;57.50;;;;;;10327860;28;20125;-53
2023/04/07 04:10:58;;;;;;;2.30;1.45;;;16.90;57.40;;;;;;10323477;28;20371;-55
2023/04/07 04:15:59;;;;;;;3.00;1.25;;;16.80;57.40;;;;;;10339420;28;20064;-56
2023/04/07 04:21:00;;;;;;;2.30;1.10;;;16.80;57.80;;;;;;10324665;28;20720;-56
2023/04/07 04:26:02;;;;;;;3.70;1.38;;;16.60;58.20;;;;;;10323226;28;20024;-55
2023/04/07 04:31:03;;;;;;;1.85;1.30;;;16.50;58.70;;;;;;10322156;28;20371;-56
2023/04/07 04:36:04;;;;;;;3.47;1.20;;;16.40;58.90;;;;;;10322912;28;20026;-53
2023/04/07 04:41:05;;;;;;;4.97;3.97;;;16.30;59.10;;;;;;10322365;28;20156;-56
2023/04/07 04:46:06;;;;;;;9.95;4.00;;;16.30;59.80;;;;;;10323839;28;20037;-55
2023/04/07 04:51:07;;;;;;;6.38;3.35;;;16.40;60.40;;;;;;10323540;28;20030;-53
2023/04/07 04:56:07;;;;;;;7.60;3.33;;;16.50;61.60;;;;;;10323458;28;20050;-57
2023/04/07 05:01:08;;;;;;;5.00;3.17;;;16.50;61.90;;;;;;10325536;28;20677;-56
2023/04/07 05:06:09;;;;;;;11.23;4.40;;;16.50;62.30;;;;;;10323057;28;20133;-57
2023/04/07 05:11:11;;;;;;;12.50;4.20;;;16.60;62.20;;;;;;10321022;28;20024;-56
2023/04/07 05:16:11;;;;;;;12.20;4.82;;;16.50;62.80;;;;;;10321766;28;20045;-56
2023/04/07 05:21:12;;;;;;;12.65;4.75;;;16.50;63.10;;;;;;10318117;28;20065;-56
2023/04/07 05:26:13;;;;;;;13.30;4.53;;;16.30;63.60;;;;;;10319971;28;20030;-57
2023/04/07 05:31:13;;;;;;;17.15;5.45;;;16.40;63.70;;;;;;10322478;28;20030;-56
2023/04/07 05:36:15;;;;;;;20.88;4.60;;;16.40;64.30;;;;;;10323062;28;20106;-56
2023/04/07 05:41:15;;;;;;;20.80;5.38;;;16.20;63.60;;;;;;10322567;28;20022;-55
2023/04/07 05:46:16;;;;;;;22.10;5.18;;;16.10;63.90;;;;;;10322991;28;20105;-55
2023/04/07 05:51:16;;;;;;;19.20;5.50;;;16.00;64.30;;;;;;10317731;28;20046;-55
2023/04/07 05:56:17;;;;;;;28.70;6.15;;;15.90;64.40;;;;;;10327034;28;20493;-53
2023/04/07 06:01:18;;;;;;;25.10;6.03;;;16.00;64.70;;;;;;10322909;28;20039;-56
2023/04/07 06:06:19;;;;;;;52.95;10.00;;;16.10;64.10;;;;;;10327505;28;20108;-55
2023/04/07 06:11:20;;;;;;;34.90;8.10;;;16.10;64.70;;;;;;10326662;28;20025;-56
2023/04/07 06:16:20;;;;;;;36.00;6.93;;;16.10;64.40;;;;;;10327435;28;20704;-57
2023/04/07 06:21:21;;;;;;;44.30;8.32;;;16.10;65.30;;;;;;10323892;28;20028;-56
2023/04/07 06:26:22;;;;;;;37.13;7.82;;;16.10;64.70;;;;;;10325081;28;20025;-57
2023/04/07 06:31:23;;;;;;;27.90;7.35;;;16.00;64.80;;;;;;10326435;28;20022;-57
2023/04/07 06:36:24;;;;;;;31.00;6.07;;;15.90;65.40;;;;;;10325604;28;20022;-55
2023/04/07 06:41:25;;;;;;;36.40;8.73;;;15.90;65.50;;;;;;10326866;28;20102;-54
2023/04/07 06:46:26;;;;;;;35.40;7.22;;;15.90;65.40;;;;;;10327256;28;20041;-55
2023/04/07 06:51:26;;;;;;;46.72;8.05;;;15.90;65.40;;;;;;10325817;28;20105;-55
2023/04/07 06:56:27;;;;;;;49.72;9.20;;;15.90;65.80;;;;;;10327256;28;20025;-55
2023/04/07 07:01:28;;;;;;;47.22;11.23;;;16.00;69.20;;;;;;10334946;28;20371;-56
2023/04/07 07:06:30;;;;;;;35.17;7.82;;;16.00;71.70;;;;;;10325389;28;20039;-53
2023/04/07 07:11:31;;;;;;;29.73;7.18;;;16.00;69.00;;;;;;10326171;28;20018;-54
2023/04/07 07:16:31;;;;;;;32.42;7.53;;;15.90;68.20;;;;;;10326517;28;20073;-54
2023/04/07 07:21:32;;;;;;;44.15;6.88;;;15.90;68.20;;;;;;10326213;28;20109;-55
2023/04/07 07:26:33;;;;;;;31.30;6.80;;;15.90;67.90;;;;;;10326481;28;20153;-55
2023/04/07 07:31:33;;;;;;;45.17;8.65;;;15.70;68.00;;;;;;10324913;28;20077;-55
2023/04/07 07:36:34;;;;;;;34.65;8.57;;;15.70;68.10;;;;;;10325059;28;20032;-55
2023/04/07 07:41:35;;;;;;;34.78;6.82;;;15.70;68.80;;;;;;10324455;28;20046;-54
2023/04/07 07:46:35;;;;;;;38.45;8.82;;;15.70;68.40;;;;;;10325271;28;20070;-51
2023/04/07 07:51:36;;;;;;;35.63;7.03;;;15.70;68.80;;;;;;10325777;28;20040;-53
2023/04/07 07:56:37;;;;;;;38.00;7.15;;;15.80;69.50;;;;;;10324773;28;20021;-53
2023/04/07 08:01:38;;;;;;;36.55;8.20;;;15.80;69.10;;;;;;10324548;28;20022;-53
2023/04/07 08:06:38;;;;;;;34.33;7.20;;;15.80;69.10;;;;;;10324468;28;20046;-53
2023/04/07 08:11:39;;;;;;;36.10;6.50;;;15.80;69.30;;;;;;10323460;28;20038;-54
2023/04/07 08:16:40;;;;;;;37.70;7.65;;;15.70;69.10;;;;;;10322624;28;20018;-55
2023/04/07 08:21:41;;;;;;;47.03;9.73;;;15.60;68.70;;;;;;10321138;28;20030;-51
2023/04/07 08:26:41;;;;;;;46.10;12.25;;;15.70;68.70;;;;;;10323765;28;20421;-54
2023/04/07 08:31:42;;;;;;;36.08;8.20;;;15.60;68.70;;;;;;10321978;28;20022;-53
2023/04/07 08:36:43;;;;;;;26.05;6.05;;;15.60;68.60;;;;;;10324482;28;20430;-55
2023/04/07 08:41:45;;;;;;;31.02;7.45;;;15.60;68.20;;;;;;10324339;28;20058;-55
2023/04/07 08:46:48;;;;;;;26.75;6.45;;;15.60;68.20;;;;;;10324189;28;20080;-55
2023/04/07 08:51:50;;;;;;;24.27;6.20;;;15.50;68.20;;;;;;10324367;28;20101;-55
2023/04/07 08:56:51;;;;;;;28.33;6.35;;;15.50;68.10;;;;;;10323738;28;20049;-54
2023/04/07 09:01:53;;;;;;;22.35;5.93;;;15.50;67.90;;;;;;10336107;28;20564;-55
2023/04/07 09:06:53;;;;;;;24.23;6.05;;;15.50;67.70;;;;;;10322621;28;20046;-54
2023/04/07 09:11:54;;;;;;;18.40;4.88;;;15.60;67.50;;;;;;10323472;28;20034;-55
2023/04/07 09:16:55;;;;;;;20.52;5.07;;;15.70;67.10;;;;;;10324152;28;20026;-55
2023/04/07 09:21:56;;;;;;;24.88;5.43;;;15.70;66.70;;;;;;10322124;28;20030;-55
2023/04/07 09:27:14;;;;;;;21.17;4.47;;;15.80;66.50;;;;;;10323481;28;20401;-55
2023/04/07 09:32:38;;;;;;;20.42;4.88;;;15.80;66.40;;;;;;10328598;28;20069;-55
2023/04/07 09:37:39;;;;;;;15.68;5.13;;;15.80;66.30;;;;;;10331187;28;20588;-54
2023/04/07 09:42:47;;;;;;;12.50;3.47;;;15.80;66.10;;;;;;10329262;28;20037;-55
2023/04/07 09:47:47;;;;;;;17.33;4.40;;;15.90;65.80;;;;;;10330674;28;20049;-55
2023/04/07 09:52:53;;;;;;;13.20;4.03;;;15.90;66.30;;;;;;10330655;28;20045;-54
2023/04/07 09:57:55;;;;;;;11.00;4.05;;;15.80;65.60;;;;;;10330372;28;20622;-55
2023/04/07 10:02:56;;;;;;;12.98;3.35;;;15.80;65.70;;;;;;10342488;28;20037;-55
2023/04/07 10:07:57;;;;;;;26.25;4.53;;;15.80;65.80;;;;;;10329262;28;20062;-52
2023/04/07 10:12:58;;;;;;;40.92;6.53;;;15.80;65.50;;;;;;10328805;28;20064;-55
2023/04/07 10:18:00;;;;;;;9.82;3.40;;;15.90;65.30;;;;;;10326151;28;20019;-53
2023/04/07 10:23:09;;;;;;;8.80;2.95;;;15.90;65.20;;;;;;10326263;28;20030;-55
2023/04/07 10:28:11;;;;;;;7.82;2.30;;;15.80;65.30;;;;;;10327902;28;20028;-55
2023/04/07 10:33:12;;;;;;;8.50;3.08;;;15.90;65.30;;;;;;10328289;28;20030;-55
2023/04/07 10:38:13;;;;;;;14.32;4.03;;;15.90;65.00;;;;;;10329116;28;20015;-54
2023/04/07 10:43:39;;;;;;;7.60;4.05;;;15.90;64.90;;;;;;10328475;28;20061;-55
2023/04/07 10:48:40;;;;;;;10.55;2.75;;;15.90;64.90;;;;;;10328582;28;20502;-55
2023/04/07 10:54:16;;;;;;;11.65;2.95;;;15.80;64.90;;;;;;10328441;28;20045;-55
2023/04/07 10:59:18;;;;;;;8.82;2.83;;;15.80;65.00;;;;;;10333620;28;20029;-55
2023/04/07 11:04:18;;;;;;;11.90;2.63;;;15.70;66.10;;;;;;10331619;28;20041;-55
2023/04/07 11:09:20;;;;;;;11.25;2.67;;;15.80;66.60;;;;;;10326917;28;20134;-55
2023/04/07 11:14:28;;;;;;;8.80;3.35;;;16.00;66.80;;;;;;10323006;28;20126;-54
2023/04/07 11:19:31;;;;;;;13.57;2.50;;;15.90;66.70;;;;;;10321431;28;20250;-55
2023/04/07 11:24:38;;;;;;;6.15;2.53;;;15.90;66.70;;;;;;10327007;28;20022;-54
2023/04/07 11:29:38;;;;;;;10.40;3.00;;;15.80;66.40;;;;;;10309748;28;20030;-56
2023/04/07 11:34:39;;;;;;;8.48;2.40;;;15.70;67.10;;;;;;10324765;28;20039;-54
2023/04/07 11:39:40;;;;;;;6.97;2.20;;;15.70;66.10;;;;;;10322450;28;20422;-54
2023/04/07 11:44:47;;;;;;;6.20;3.03;;;15.70;66.00;;;;;;10323922;28;20034;-55
2023/04/07 11:49:47;;;;;;;5.40;1.73;;;15.70;65.80;;;;;;10321014;28;20019;-54
2023/04/07 11:54:51;;;;;;;4.30;1.63;;;15.70;65.80;;;;;;10320238;28;20058;-54
2023/04/07 12:00:10;;;;;;;6.65;1.90;;;15.70;65.80;;;;;;10331954;28;20111;-53
2023/04/07 12:05:11;;;;;;;4.88;2.22;;;15.70;65.60;;;;;;10320237;28;20524;-56
2023/04/07 12:10:22;;;;;;;7.60;2.08;;;15.80;65.40;;;;;;10323042;28;20109;-55
2023/04/07 12:15:23;;;;;;;7.72;2.88;;;15.80;65.30;;;;;;10321779;28;20429;-55
2023/04/07 12:20:23;;;;;;;12.20;4.35;;;15.80;65.20;;;;;;10323053;28;20049;-54
2023/04/07 12:25:25;;;;;;;6.68;2.38;;;15.90;65.00;;;;;;10322105;28;20029;-55
2023/04/07 12:30:25;;;;;;;6.03;2.50;;;15.80;64.80;;;;;;10323257;28;20076;-54
2023/04/07 12:35:27;;;;;;;4.40;1.63;;;15.90;64.80;;;;;;10322193;28;20169;-55
2023/04/07 12:40:28;;;;;;;5.55;2.00;;;15.90;64.70;;;;;;10322089;28;20056;-54
2023/04/07 12:45:30;;;;;;;2.83;1.58;;;15.80;64.70;;;;;;10322082;28;20603;-55
2023/04/07 12:50:30;;;;;;;4.30;1.60;;;15.80;64.80;;;;;;10321313;28;20021;-55
2023/04/07 12:55:32;;;;;;;9.25;1.38;;;15.80;64.70;;;;;;10321672;28;20030;-54
2023/04/07 13:00:33;;;;;;;3.60;1.80;;;15.80;64.50;;;;;;10322239;28;20022;-54
2023/04/07 13:05:34;;;;;;;5.78;1.52;;;15.90;64.50;;;;;;10326243;28;20149;-54
2023/04/07 13:10:35;;;;;;;5.60;1.90;;;15.80;64.50;;;;;;10328518;28;20524;-53
2023/04/07 13:15:35;;;;;;;5.68;1.85;;;15.80;64.50;;;;;;10329957;28;20065;-55
2023/04/07 13:20:36;;;;;;;3.80;1.52;;;15.80;64.50;;;;;;10329689;28;20114;-55
2023/04/07 13:25:37;;;;;;;3.03;1.38;;;15.90;64.30;;;;;;10329434;28;20488;-55
2023/04/07 13:30:38;;;;;;;7.45;2.38;;;15.90;64.20;;;;;;10327890;28;20169;-55
2023/04/07 13:35:39;;;;;;;3.95;1.73;;;15.80;64.30;;;;;;10329722;28;20086;-55
2023/04/07 13:40:40;;;;;;;4.60;1.90;;;15.80;64.40;;;;;;10331530;28;20154;-55
2023/04/07 13:45:41;;;;;;;3.97;1.50;;;15.90;64.20;;;;;;10330786;28;20057;-54
2023/04/07 13:50:41;;;;;;;3.35;1.45;;;15.90;64.10;;;;;;10316550;28;20844;-55
2023/04/07 13:55:42;;;;;;;5.07;2.03;;;15.80;64.20;;;;;;10323451;28;20061;-55
2023/04/07 14:00:43;;;;;;;7.50;2.00;;;15.90;64.10;;;;;;10340933;28;20101;-56
2023/04/07 14:05:43;;;;;;;13.18;3.22;;;15.90;64.00;;;;;;10327316;28;20053;-56
2023/04/07 14:10:44;;;;;;;11.30;2.40;;;15.80;64.40;;;;;;10326446;28;20472;-56
2023/04/07 14:15:47;;;;;;;7.97;1.98;;;16.00;64.50;;;;;;10328242;28;20114;-56
2023/04/07 14:20:48;;;;;;;15.68;2.13;;;16.40;64.10;;;;;;10328632;28;20363;-56
2023/04/07 14:25:48;;;;;;;14.68;2.42;;;16.80;63.10;;;;;;10326840;28;20019;-55
2023/04/07 14:30:49;;;;;;;10.82;3.13;;;17.10;62.60;;;;;;10327422;28;20110;-55
2023/04/07 14:35:50;;;;;;;9.15;2.22;;;17.40;61.50;;;;;;10319760;28;20919;-55
2023/04/07 14:40:51;;;;;;;13.48;3.03;;;17.40;61.40;;;;;;10327889;28;20015;-54
2023/04/07 14:45:52;;;;;;;9.45;2.35;;;17.60;61.40;;;;;;10326669;28;20826;-55
2023/04/07 14:50:53;;;;;;;10.43;2.03;;;17.70;61.00;;;;;;10326984;28;20134;-55
2023/04/07 14:55:54;;;;;;;13.30;2.22;;;17.80;60.70;;;;;;10326039;28;20117;-55
2023/04/07 15:00:54;;;;;;;8.43;2.85;;;17.70;60.90;;;;;;10329624;28;20072;-56
2023/04/07 15:05:55;;;;;;;5.25;1.98;;;17.80;60.60;;;;;;10308743;28;20038;-56
2023/04/07 15:10:56;;;;;;;11.77;2.20;;;17.90;60.60;;;;;;10327270;28;20027;-56
2023/04/07 15:16:23;;;;;;;11.85;2.20;;;18.00;60.60;;;;;;10323950;28;20026;-56
2023/04/07 15:21:24;;;;;;;6.85;1.83;;;17.90;60.80;;;;;;10313001;28;20536;-56
2023/04/07 15:26:24;;;;;;;8.38;2.38;;;17.90;61.10;;;;;;10317199;28;20027;-55
2023/04/07 15:31:27;;;;;;;10.02;2.13;;;17.70;61.90;;;;;;10316477;28;20458;-55
2023/04/07 15:36:27;;;;;;;16.40;2.97;;;17.80;61.60;;;;;;10325121;28;20031;-56
2023/04/07 15:41:28;;;;;;;19.83;6.95;;;17.50;61.90;;;;;;10326208;28;20642;-56
2023/04/07 15:46:30;;;;;;;29.90;11.05;;;17.20;63.90;;;;;;10324197;28;20033;-56
2023/04/07 15:51:31;;;;;;;22.42;11.50;;;17.10;64.60;;;;;;10322966;28;20031;-52
2023/04/07 15:56:32;;;;;;;34.92;19.95;;;17.30;64.20;;;;;;10321895;28;20113;-57
2023/04/07 16:01:33;;;;;;;28.25;12.85;;;17.70;69.00;;;;;;10329387;28;20031;-53
2023/04/07 16:06:34;;;;;;;30.05;13.00;;;18.10;65.90;;;;;;10320659;28;20047;-56
2023/04/07 16:11:35;;;;;;;26.42;10.38;;;18.20;64.80;;;;;;10320668;28;20623;-55
2023/04/07 16:16:35;;;;;;;20.33;8.63;;;18.20;63.70;;;;;;10324597;28;20034;-55
2023/04/07 16:21:38;;;;;;;19.25;7.93;;;18.20;63.20;;;;;;10324473;28;20102;-55
2023/04/07 16:26:38;;;;;;;19.23;6.63;;;18.50;63.20;;;;;;10319804;28;20026;-55
2023/04/07 16:31:40;;;;;;;24.58;7.50;;;18.40;62.70;;;;;;10322730;28;20105;-62
2023/04/07 16:36:41;;;;;;;18.90;7.68;;;18.30;62.90;;;;;;10323110;28;20045;-53
2023/04/07 16:41:42;;;;;;;20.45;8.57;;;18.10;63.80;;;;;;10317869;28;20046;-55
2023/04/07 16:46:42;;;;;;;17.08;6.28;;;17.80;64.40;;;;;;10312183;28;20034;-55
2023/04/07 16:51:43;;;;;;;14.02;5.88;;;17.70;64.30;;;;;;10318401;28;20074;-55
2023/04/07 16:56:44;;;;;;;12.00;5.20;;;17.70;64.40;;;;;;10316732;28;20053;-55
2023/04/07 17:01:44;;;;;;;10.13;5.93;;;17.60;64.70;;;;;;10320022;28;20169;-54
2023/04/07 17:06:45;;;;;;;11.57;5.13;;;17.40;64.90;;;;;;10317103;28;20078;-53
2023/04/07 17:11:46;;;;;;;16.25;6.70;;;17.40;65.20;;;;;;10319236;28;20053;-55
2023/04/07 17:16:46;;;;;;;19.75;6.22;;;17.30;65.30;;;;;;10322100;28;20105;-55
2023/04/07 17:21:47;;;;;;;14.07;5.45;;;17.30;65.20;;;;;;10323530;28;20085;-54
2023/04/07 17:26:48;;;;;;;15.10;5.60;;;17.40;64.50;;;;;;10321947;28;20018;-54
2023/04/07 17:31:49;;;;;;;15.85;5.65;;;17.60;64.50;;;;;;10322663;28;20015;-55
2023/04/07 17:36:50;;;;;;;14.77;4.82;;;17.60;64.90;;;;;;10323018;28;20119;-56
2023/04/07 17:41:51;;;;;;;12.45;4.00;;;17.60;65.00;;;;;;10322646;28;20050;-55
2023/04/07 17:46:52;;;;;;;12.45;5.03;;;17.50;64.60;;;;;;10321600;28;20069;-56
2023/04/07 17:51:53;;;;;;;8.35;3.78;;;17.30;65.60;;;;;;10339969;28;20497;-55
2023/04/07 17:56:54;;;;;;;8.77;4.43;;;17.20;65.70;;;;;;10329377;28;20084;-53
2023/04/07 18:01:54;;;;;;;13.13;5.65;;;17.20;65.70;;;;;;10330910;28;20101;-55
2023/04/07 18:06:56;;;;;;;11.57;4.15;;;17.20;65.60;;;;;;10330115;28;20050;-56
2023/04/07 18:11:56;;;;;;;11.82;3.67;;;17.30;65.40;;;;;;10329833;28;20432;-56
2023/04/07 18:16:57;;;;;;;10.75;3.75;;;17.50;64.60;;;;;;10329052;28;20007;-56
2023/04/07 18:21:59;;;;;;;8.23;3.70;;;17.50;64.70;;;;;;10329566;28;20021;-54
2023/04/07 18:27:01;;;;;;;10.18;4.40;;;17.50;64.60;;;;;;10328589;28;20858;-54
2023/04/07 18:32:02;;;;;;;7.85;3.08;;;17.50;64.30;;;;;;10344127;28;20524;-52
2023/04/07 18:37:02;;;;;;;10.55;3.60;;;17.50;64.50;;;;;;10329144;28;20094;-50
2023/04/07 18:42:03;;;;;;;7.63;3.03;;;17.40;64.80;;;;;;10329004;28;20061;-51
2023/04/07 18:47:04;;;;;;;6.05;3.08;;;17.40;64.90;;;;;;10328622;28;20018;-52
2023/04/07 18:52:06;;;;;;;8.48;4.05;;;17.50;64.40;;;;;;10328615;28;20084;-49
2023/04/07 18:57:06;;;;;;;8.32;3.20;;;17.50;64.20;;;;;;10328527;28;20026;-52
2023/04/07 19:02:07;;;;;;;12.45;4.10;;;17.50;64.30;;;;;;10340002;28;20053;-55
2023/04/07 19:07:08;;;;;;;6.03;2.92;;;17.50;64.40;;;;;;10328034;28;20082;-54
2023/04/07 19:12:10;;;;;;;7.88;2.70;;;17.40;64.40;;;;;;10327961;28;20168;-52
2023/04/07 19:17:11;;;;;;;7.85;2.80;;;17.20;64.90;;;;;;10321945;28;20026;-53
2023/04/07 19:22:11;;;;;;;6.63;2.60;;;17.30;64.50;;;;;;10319865;28;20030;-53
2023/04/07 19:27:13;;;;;;;8.05;2.80;;;17.40;64.20;;;;;;10325445;28;20082;-54
2023/04/07 19:32:14;;;;;;;7.80;3.13;;;17.40;64.00;;;;;;10324778;28;20165;-54
2023/04/07 19:37:15;;;;;;;6.82;3.55;;;17.40;64.10;;;;;;10324561;28;20037;-55
2023/04/07 19:42:16;;;;;;;6.22;3.45;;;17.30;64.40;;;;;;10324987;28;20113;-53
2023/04/07 19:47:16;;;;;;;5.25;2.65;;;17.20;64.70;;;;;;10325071;28;20019;-53
2023/04/07 19:52:17;;;;;;;4.82;2.45;;;17.00;64.90;;;;;;10326124;28;20031;-54
2023/04/07 19:57:18;;;;;;;6.18;3.50;;;16.90;65.20;;;;;;10326110;28;20022;-54
2023/04/07 20:02:20;;;;;;;8.30;3.60;;;16.90;65.50;;;;;;10337791;28;20029;-54
2023/04/07 20:07:21;;;;;;;5.63;2.58;;;16.80;65.70;;;;;;10325816;28;20501;-54
2023/04/07 20:12:23;;;;;;;7.25;3.00;;;16.70;66.00;;;;;;10325039;28;20081;-53
2023/04/07 20:17:23;;;;;;;5.97;3.00;;;16.60;66.10;;;;;;10324520;28;20022;-53
2023/04/07 20:22:24;;;;;;;5.43;2.92;;;16.50;66.20;;;;;;10323757;28;20019;-53
2023/04/07 20:27:25;;;;;;;3.50;2.20;;;16.50;66.30;;;;;;10324652;28;20519;-53
2023/04/07 20:32:27;;;;;;;6.68;3.35;;;16.40;66.30;;;;;;10324366;28;20636;-53
2023/04/07 20:37:27;;;;;;;7.68;3.00;;;16.40;66.40;;;;;;10324328;28;20041;-54
2023/04/07 20:42:28;;;;;;;5.70;2.90;;;16.30;66.40;;;;;;10324263;28;20010;-55
2023/04/07 20:47:30;;;;;;;2.92;2.03;;;16.30;66.50;;;;;;10324158;28;20721;-52
2023/04/07 20:52:30;;;;;;;5.55;2.85;;;16.20;66.60;;;;;;10323744;28;20075;-54
2023/04/07 20:57:32;;;;;;;5.13;3.47;;;16.20;66.60;;;;;;10323703;28;20054;-55
2023/04/07 21:02:32;;;;;;;4.05;2.67;;;16.20;66.80;;;;;;10318345;28;20030;-49
2023/04/07 21:07:33;;;;;;;4.70;2.63;;;16.10;66.80;;;;;;10323305;28;20448;-54
2023/04/07 21:12:34;;;;;;;7.55;3.13;;;16.10;66.90;;;;;;10322313;28;20049;-53
2023/04/07 21:17:35;;;;;;;5.68;2.72;;;16.10;67.00;;;;;;10323574;28;20032;-54
2023/04/07 21:22:36;;;;;;;6.07;3.58;;;16.00;66.90;;;;;;10321898;28;20113;-53
2023/04/07 21:27:37;;;;;;;4.07;3.08;;;16.00;67.00;;;;;;10327653;28;20034;-53
2023/04/07 21:32:37;;;;;;;4.70;3.22;;;16.00;67.10;;;;;;10331221;28;20030;-53
2023/04/07 21:37:38;;;;;;;5.15;3.10;;;16.00;67.10;;;;;;10330985;28;20121;-54
2023/04/07 21:42:39;;;;;;;9.00;3.17;;;15.90;67.10;;;;;;10330975;28;20133;-52
2023/04/07 21:47:40;;;;;;;4.60;3.40;;;15.90;67.10;;;;;;10331100;28;20667;-54
2023/04/07 21:52:41;;;;;;;4.47;3.05;;;15.90;67.20;;;;;;10330511;28;20045;-52
2023/04/07 21:57:42;;;;;;;5.65;3.15;;;15.80;67.10;;;;;;10329295;28;20018;-53
2023/04/07 22:02:43;;;;;;;4.57;2.67;;;15.80;67.80;;;;;;10330120;28;20105;-54
2023/04/07 22:07:44;;;;;;;5.95;3.40;;;15.80;67.90;;;;;;10329917;28;20043;-55
2023/04/07 22:12:45;;;;;;;5.63;3.25;;;15.80;67.20;;;;;;10329424;28;20069;-55
2023/04/07 22:17:46;;;;;;;4.57;3.10;;;15.70;67.10;;;;;;10328099;28;20101;-53
2023/04/07 22:22:46;;;;;;;4.70;2.60;;;15.70;67.20;;;;;;10329607;28;20680;-54
2023/04/07 22:27:47;;;;;;;5.35;2.60;;;15.70;67.20;;;;;;10329281;28;20027;-54
2023/04/07 22:32:47;;;;;;;4.28;3.00;;;15.70;67.20;;;;;;10328987;28;20073;-54
2023/04/07 22:37:48;;;;;;;4.25;2.63;;;15.70;67.20;;;;;;10328675;28;20014;-52
2023/04/07 22:42:49;;;;;;;5.15;4.07;;;15.60;67.10;;;;;;10327856;28;20057;-52
2023/04/07 22:47:50;;;;;;;3.28;2.83;;;15.60;67.20;;;;;;10328415;28;20110;-55
2023/04/07 22:52:51;;;;;;;5.75;2.60;;;15.60;67.20;;;;;;10328201;28;20035;-54
2023/04/07 22:57:52;;;;;;;4.90;3.10;;;15.60;67.20;;;;;;10326496;28;20018;-53
2023/04/07 23:02:52;;;;;;;6.18;3.58;;;15.60;67.20;;;;;;10339280;28;20033;-54
2023/04/07 23:07:53;;;;;;;3.03;2.20;;;15.60;67.10;;;;;;10327516;28;20585;-54
2023/04/07 23:12:54;;;;;;;4.25;2.60;;;15.50;67.10;;;;;;10327417;28;20113;-51
2023/04/07 23:17:55;;;;;;;5.30;2.90;;;15.60;67.10;;;;;;10327148;28;20349;-51
2023/04/07 23:22:56;;;;;;;4.53;2.35;;;15.60;67.10;;;;;;10326362;28;20034;-53
2023/04/07 23:27:56;;;;;;;4.72;2.70;;;15.50;67.00;;;;;;10326746;28;20030;-54
2023/04/07 23:32:57;;;;;;;4.50;3.05;;;15.60;67.00;;;;;;10326710;28;20660;-54
2023/04/07 23:37:58;;;;;;;5.35;3.20;;;15.50;67.60;;;;;;10326331;28;20157;-53
2023/04/07 23:42:58;;;;;;;3.78;2.90;;;15.50;67.00;;;;;;10326633;28;20027;-55
2023/04/07 23:47:59;;;;;;;3.90;2.60;;;15.50;67.00;;;;;;10325229;28;20030;-53
2023/04/07 23:53:00;;;;;;;3.28;2.38;;;15.50;67.10;;;;;;10325690;28;20030;-55
2023/04/07 23:58:01;;;;;;;3.50;2.90;;;15.50;67.10;;;;;;10326142;28;20089;-53
